sensor_id;sensor_type;location;lat;lon;timestamp;pressure;altitude;pressure_sealevel;temperature;humidity
27425;BME280;15244;49.088;11.886;2023-03-08T00:02:54;94314.47;;;5.76;40.68
27425;BME280;15244;49.088;11.886;2023-03-08T00:07:58;94316.03;;;5.81;40.84
27425;BME280;15244;49.088;11.886;2023-03-08T00:12:59;94319.50;;;5.81;40.60
27425;BME280;15244;49.088;11.886;2023-03-08T00:18:01;94332.66;;;5.83;40.60
27425;BME280;15244;49.088;11.886;2023-03-08T00:23:03;94331.47;;;5.80;40.53
27425;BME280;15244;49.088;11.886;2023-03-08T00:28:04;94335.34;;;5.76;41.16
27425;BME280;15244;49.088;11.886;2023-03-08T00:33:06;94326.44;;;5.72;40.89
27425;BME280;15244;49.088;11.886;2023-03-08T00:38:07;94333.41;;;5.65;41.06
27425;BME280;15244;49.088;11.886;2023-03-08T00:43:09;94336.88;;;5.70;40.86
27425;BME280;15244;49.088;11.886;2023-03-08T00:48:11;94330.69;;;5.69;41.11
27425;BME280;15244;49.088;11.886;2023-03-08T00:53:13;94342.28;;;5.73;40.65
27425;BME280;15244;49.088;11.886;2023-03-08T00:58:15;94329.53;;;5.67;40.66
27425;BME280;15244;49.088;11.886;2023-03-08T01:03:18;94331.47;;;5.70;40.37
27425;BME280;15244;49.088;11.886;2023-03-08T01:08:23;94332.25;;;5.77;40.30
27425;BME280;15244;49.088;11.886;2023-03-08T01:13:30;94323.38;;;5.80;40.68
27425;BME280;15244;49.088;11.886;2023-03-08T01:18:33;94326.06;;;5.80;40.61
27425;BME280;15244;49.088;11.886;2023-03-08T01:23:34;94325.28;;;5.83;40.58
27425;BME280;15244;49.088;11.886;2023-03-08T01:28:36;94326.47;;;5.82;40.55
27425;BME280;15244;49.088;11.886;2023-03-08T01:33:40;94317.56;;;5.82;40.33
27425;BME280;15244;49.088;11.886;2023-03-08T01:38:42;94318.34;;;5.86;40.42
27425;BME280;15244;49.088;11.886;2023-03-08T01:43:45;94321.81;;;5.83;40.16
27425;BME280;15244;49.088;11.886;2023-03-08T01:49:07;94310.22;;;5.79;40.77
27425;BME280;15244;49.088;11.886;2023-03-08T01:54:15;94309.84;;;5.77;40.74
27425;BME280;15244;49.088;11.886;2023-03-08T01:59:19;94306.75;;;5.75;40.43
27425;BME280;15244;49.088;11.886;2023-03-08T02:04:22;94316.41;;;5.69;40.53
27425;BME280;15244;49.088;11.886;2023-03-08T02:09:24;94307.91;;;5.67;40.55
27425;BME280;15244;49.088;11.886;2023-03-08T02:14:27;94294.00;;;5.64;40.11
27425;BME280;15244;49.088;11.886;2023-03-08T02:19:34;94314.09;;;5.60;40.25
27425;BME280;15244;49.088;11.886;2023-03-08T02:24:39;94299.78;;;5.56;40.47
27425;BME280;15244;49.088;11.886;2023-03-08T02:29:40;94295.16;;;5.60;40.42
27425;BME280;15244;49.088;11.886;2023-03-08T02:34:42;94297.09;;;5.59;40.51
27425;BME280;15244;49.088;11.886;2023-03-08T02:39:43;94290.91;;;5.59;40.38
27425;BME280;15244;49.088;11.886;2023-03-08T02:44:45;94291.69;;;5.56;40.21
27425;BME280;15244;49.088;11.886;2023-03-08T02:49:47;94294.78;;;5.58;40.32
27425;BME280;15244;49.088;11.886;2023-03-08T02:54:48;94295.53;;;5.58;40.31
27425;BME280;15244;49.088;11.886;2023-03-08T02:59:50;94290.13;;;5.58;40.17
27425;BME280;15244;49.088;11.886;2023-03-08T03:04:52;94290.94;;;5.62;39.51
27425;BME280;15244;49.088;11.886;2023-03-08T03:09:53;94290.53;;;5.64;39.93
27425;BME280;15244;49.088;11.886;2023-03-08T03:14:55;94290.91;;;5.66;40.42
27425;BME280;15244;49.088;11.886;2023-03-08T03:19:57;94305.97;;;5.63;39.91
27425;BME280;15244;49.088;11.886;2023-03-08T03:24:59;94298.25;;;5.58;39.90
27425;BME280;15244;49.088;11.886;2023-03-08T03:30:00;94306.38;;;5.55;40.28
27425;BME280;15244;49.088;11.886;2023-03-08T03:35:03;94309.44;;;5.53;40.33
27425;BME280;15244;49.088;11.886;2023-03-08T03:40:05;94307.91;;;5.45;40.02
27425;BME280;15244;49.088;11.886;2023-03-08T03:45:08;94309.06;;;5.37;40.58
27425;BME280;15244;49.088;11.886;2023-03-08T03:50:11;94310.97;;;5.33;40.10
27425;BME280;15244;49.088;11.886;2023-03-08T03:55:21;94309.81;;;5.30;40.31
27425;BME280;15244;49.088;11.886;2023-03-08T04:00:23;94312.13;;;5.32;40.34
27425;BME280;15244;49.088;11.886;2023-03-08T04:05:41;94302.84;;;5.18;40.62
27425;BME280;15244;49.088;11.886;2023-03-08T04:10:44;94297.81;;;5.10;40.57
27425;BME280;15244;49.088;11.886;2023-03-08T04:15:47;94293.16;;;4.99;40.41
27425;BME280;15244;49.088;11.886;2023-03-08T04:20:49;94284.25;;;4.92;40.85
27425;BME280;15244;49.088;11.886;2023-03-08T04:25:50;94279.22;;;4.80;40.93
27425;BME280;15244;49.088;11.886;2023-03-08T04:30:53;94280.34;;;4.71;40.76
27425;BME280;15244;49.088;11.886;2023-03-08T04:35:55;94275.28;;;4.59;41.58
27425;BME280;15244;49.088;11.886;2023-03-08T04:40:59;94281.44;;;4.60;41.59
27425;BME280;15244;49.088;11.886;2023-03-08T04:46:17;94282.63;;;4.62;41.33
27425;BME280;15244;49.088;11.886;2023-03-08T04:51:20;94280.28;;;4.61;41.95
27425;BME280;15244;49.088;11.886;2023-03-08T04:56:23;94272.59;;;4.63;41.45
27425;BME280;15244;49.088;11.886;2023-03-08T05:01:25;94272.22;;;4.64;41.74
27425;BME280;15244;49.088;11.886;2023-03-08T05:06:27;94259.09;;;4.63;42.17
27425;BME280;15244;49.088;11.886;2023-03-08T05:11:31;94254.47;;;4.60;41.64
27425;BME280;15244;49.088;11.886;2023-03-08T05:16:33;94232.47;;;4.57;41.72
27425;BME280;15244;49.088;11.886;2023-03-08T05:21:36;94232.84;;;4.52;42.25
27425;BME280;15244;49.088;11.886;2023-03-08T05:26:38;94229.38;;;4.52;42.11
27425;BME280;15244;49.088;11.886;2023-03-08T05:31:41;94232.06;;;4.55;42.36
27425;BME280;15244;49.088;11.886;2023-03-08T05:36:46;94231.31;;;4.55;42.52
27425;BME280;15244;49.088;11.886;2023-03-08T05:41:48;94229.38;;;4.55;42.05
27425;BME280;15244;49.088;11.886;2023-03-08T05:46:56;94205.47;;;4.57;42.25
27425;BME280;15244;49.088;11.886;2023-03-08T05:51:57;94205.88;;;4.63;42.40
27425;BME280;15244;49.088;11.886;2023-03-08T05:57:01;94204.72;;;4.68;41.91
27425;BME280;15244;49.088;11.886;2023-03-08T06:02:03;94207.44;;;4.68;42.12
27425;BME280;15244;49.088;11.886;2023-03-08T06:07:31;94198.56;;;4.67;42.01
27425;BME280;15244;49.088;11.886;2023-03-08T06:12:39;94202.06;;;4.71;41.88
27425;BME280;15244;49.088;11.886;2023-03-08T06:17:44;94221.34;;;4.77;42.18
27425;BME280;15244;49.088;11.886;2023-03-08T06:22:50;94234.06;;;4.76;42.48
27425;BME280;15244;49.088;11.886;2023-03-08T06:27:52;94234.06;;;4.80;42.07
27425;BME280;15244;49.088;11.886;2023-03-08T06:33:00;94247.19;;;4.82;42.72
27425;BME280;15244;49.088;11.886;2023-03-08T06:38:02;94246.44;;;4.88;42.34
27425;BME280;15244;49.088;11.886;2023-03-08T06:43:05;94258.78;;;4.89;41.88
27425;BME280;15244;49.088;11.886;2023-03-08T06:48:06;94246.06;;;4.86;42.23
27425;BME280;15244;49.088;11.886;2023-03-08T06:53:09;94240.66;;;4.86;42.61
27425;BME280;15244;49.088;11.886;2023-03-08T06:58:22;94234.47;;;4.82;42.66
27425;BME280;15244;49.088;11.886;2023-03-08T07:03:25;94233.31;;;4.83;42.63
27425;BME280;15244;49.088;11.886;2023-03-08T07:08:27;94239.47;;;4.80;42.68
27425;BME280;15244;49.088;11.886;2023-03-08T07:13:28;94242.91;;;4.73;43.09
27425;BME280;15244;49.088;11.886;2023-03-08T07:18:30;94238.69;;;4.76;42.84
27425;BME280;15244;49.088;11.886;2023-03-08T07:23:32;94215.16;;;4.80;42.63
27425;BME280;15244;49.088;11.886;2023-03-08T07:28:34;94231.03;;;4.89;42.85
27425;BME280;15244;49.088;11.886;2023-03-08T07:33:35;94217.91;;;4.94;42.61
27425;BME280;15244;49.088;11.886;2023-03-08T07:38:37;94229.88;;;4.97;42.79
27425;BME280;15244;49.088;11.886;2023-03-08T07:43:39;94221.38;;;4.98;43.53
27425;BME280;15244;49.088;11.886;2023-03-08T07:48:48;94211.38;;;5.10;43.15
27425;BME280;15244;49.088;11.886;2023-03-08T07:53:50;94193.59;;;5.23;43.06
27425;BME280;15244;49.088;11.886;2023-03-08T07:58:55;94194.00;;;5.36;43.26
27425;BME280;15244;49.088;11.886;2023-03-08T08:03:58;94198.25;;;5.48;43.62
27425;BME280;15244;49.088;11.886;2023-03-08T08:09:01;94200.16;;;5.58;42.86
27425;BME280;15244;49.088;11.886;2023-03-08T08:14:03;94197.03;;;5.67;43.33
27425;BME280;15244;49.088;11.886;2023-03-08T08:19:04;94190.09;;;5.69;42.75
27425;BME280;15244;49.088;11.886;2023-03-08T08:24:07;94193.19;;;5.71;43.38
27425;BME280;15244;49.088;11.886;2023-03-08T08:29:09;94194.34;;;5.74;43.18
27425;BME280;15244;49.088;11.886;2023-03-08T08:34:11;94166.09;;;5.82;43.37
27425;BME280;15244;49.088;11.886;2023-03-08T08:39:12;94180.03;;;5.80;43.16
27425;BME280;15244;49.088;11.886;2023-03-08T08:44:14;94177.34;;;5.80;43.60
27425;BME280;15244;49.088;11.886;2023-03-08T08:49:15;94159.16;;;5.81;44.25
27425;BME280;15244;49.088;11.886;2023-03-08T08:54:17;94147.16;;;5.82;44.30
27425;BME280;15244;49.088;11.886;2023-03-08T08:59:19;94136.75;;;5.84;44.56
27425;BME280;15244;49.088;11.886;2023-03-08T09:04:20;94127.06;;;5.90;44.20
27425;BME280;15244;49.088;11.886;2023-03-08T09:09:22;94110.84;;;5.90;44.75
27425;BME280;15244;49.088;11.886;2023-03-08T09:14:24;94109.69;;;5.95;45.48
27425;BME280;15244;49.088;11.886;2023-03-08T09:19:26;94113.94;;;5.96;45.26
27425;BME280;15244;49.088;11.886;2023-03-08T09:24:27;94105.41;;;6.01;45.60
27425;BME280;15244;49.088;11.886;2023-03-08T09:29:29;94098.03;;;6.05;46.00
27425;BME280;15244;49.088;11.886;2023-03-08T09:34:30;94079.91;;;6.05;46.24
27425;BME280;15244;49.088;11.886;2023-03-08T09:39:33;94063.63;;;6.09;46.70
27425;BME280;15244;49.088;11.886;2023-03-08T09:44:56;94041.53;;;6.18;47.47
27425;BME280;15244;49.088;11.886;2023-03-08T09:50:30;94033.41;;;6.21;47.40
27425;BME280;15244;49.088;11.886;2023-03-08T09:55:36;94029.91;;;6.24;47.90
27425;BME280;15244;49.088;11.886;2023-03-08T10:00:38;94008.25;;;6.24;48.53
27425;BME280;15244;49.088;11.886;2023-03-08T10:05:57;93993.56;;;6.25;47.99
27425;BME280;15244;49.088;11.886;2023-03-08T10:11:03;93988.94;;;6.26;48.65
27425;BME280;15244;49.088;11.886;2023-03-08T10:16:24;93965.34;;;6.26;48.74
27425;BME280;15244;49.088;11.886;2023-03-08T10:21:27;93949.91;;;6.23;48.83
27425;BME280;15244;49.088;11.886;2023-03-08T10:26:30;93950.66;;;6.24;49.22
27425;BME280;15244;49.088;11.886;2023-03-08T10:31:32;93953.75;;;6.26;48.86
27425;BME280;15244;49.088;11.886;2023-03-08T10:36:34;93952.22;;;6.21;49.04
27425;BME280;15244;49.088;11.886;2023-03-08T10:41:58;93942.59;;;6.17;49.57
27425;BME280;15244;49.088;11.886;2023-03-08T10:47:03;93936.00;;;6.18;48.97
27425;BME280;15244;49.088;11.886;2023-03-08T10:52:22;93944.56;;;6.13;49.01
27425;BME280;15244;49.088;11.886;2023-03-08T10:57:25;93941.13;;;6.08;49.04
27425;BME280;15244;49.088;11.886;2023-03-08T11:02:28;93930.34;;;6.01;49.33
27425;BME280;15244;49.088;11.886;2023-03-08T11:07:31;93929.19;;;5.99;49.17
27425;BME280;15244;49.088;11.886;2023-03-08T11:12:33;93912.22;;;5.95;49.73
27425;BME280;15244;49.088;11.886;2023-03-08T11:17:37;93922.28;;;5.91;49.62
27425;BME280;15244;49.088;11.886;2023-03-08T11:28:11;93898.00;;;5.83;50.48
27425;BME280;15244;49.088;11.886;2023-03-08T11:33:38;93899.94;;;5.79;49.43
27425;BME280;15244;49.088;11.886;2023-03-08T11:39:36;93897.25;;;5.76;49.91
27425;BME280;15244;49.088;11.886;2023-03-08T11:44:25;93892.63;;;5.76;50.35
27425;BME280;15244;49.088;11.886;2023-03-08T11:49:48;93887.97;;;5.77;49.83
27425;BME280;15244;49.088;11.886;2023-03-08T11:55:02;93875.63;;;5.76;49.98
27425;BME280;15244;49.088;11.886;2023-03-08T12:00:23;93870.66;;;5.71;50.07
27425;BME280;15244;49.088;11.886;2023-03-08T12:05:38;93860.25;;;5.65;50.33
27425;BME280;15244;49.088;11.886;2023-03-08T12:10:46;93854.09;;;5.65;50.45
27425;BME280;15244;49.088;11.886;2023-03-08T12:21:35;93844.47;;;5.60;51.10
27425;BME280;15244;49.088;11.886;2023-03-08T12:26:44;93813.16;;;5.63;51.41
27425;BME280;15244;49.088;11.886;2023-03-08T12:31:49;93807.69;;;5.70;51.63
27425;BME280;15244;49.088;11.886;2023-03-08T12:36:52;93820.84;;;5.64;51.71
27425;BME280;15244;49.088;11.886;2023-03-08T12:57:28;93805.22;;;5.90;52.50
27425;BME280;15244;49.088;11.886;2023-03-08T13:02:33;93792.00;;;5.99;53.02
27425;BME280;15244;49.088;11.886;2023-03-08T13:07:51;93787.66;;;6.09;53.00
27425;BME280;15244;49.088;11.886;2023-03-08T13:18:31;93773.94;;;6.31;53.51
27425;BME280;15244;49.088;11.886;2023-03-08T13:23:37;93778.84;;;6.39;53.18
27425;BME280;15244;49.088;11.886;2023-03-08T13:28:41;93784.97;;;6.47;53.41
27425;BME280;15244;49.088;11.886;2023-03-08T13:33:53;93782.94;;;6.55;53.08
27425;BME280;15244;49.088;11.886;2023-03-08T13:39:04;93784.81;;;6.61;52.69
27425;BME280;15244;49.088;11.886;2023-03-08T13:44:26;93778.94;;;6.66;53.58
27425;BME280;15244;49.088;11.886;2023-03-08T13:49:40;93772.69;;;6.69;53.53
27425;BME280;15244;49.088;11.886;2023-03-08T13:54:46;93778.06;;;6.73;53.61
27425;BME280;15244;49.088;11.886;2023-03-08T13:59:52;93759.47;;;6.75;53.65
27425;BME280;15244;49.088;11.886;2023-03-08T14:04:55;93751.31;;;6.79;53.83
27425;BME280;15244;49.088;11.886;2023-03-08T14:09:57;93748.84;;;6.88;53.92
27425;BME280;15244;49.088;11.886;2023-03-08T14:15:02;93754.66;;;6.90;53.94
27425;BME280;15244;49.088;11.886;2023-03-08T14:20:17;93747.94;;;6.98;54.14
27425;BME280;15244;49.088;11.886;2023-03-08T14:25:30;93738.19;;;7.04;54.13
27425;BME280;15244;49.088;11.886;2023-03-08T14:30:32;93736.56;;;7.10;54.30
27425;BME280;15244;49.088;11.886;2023-03-08T14:35:42;93724.44;;;7.19;54.08
27425;BME280;15244;49.088;11.886;2023-03-08T14:40:47;93734.75;;;7.27;54.12
27425;BME280;15244;49.088;11.886;2023-03-08T14:45:58;93710.66;;;7.33;54.09
27425;BME280;15244;49.088;11.886;2023-03-08T14:51:28;93699.28;;;7.42;54.45
27425;BME280;15244;49.088;11.886;2023-03-08T14:56:28;93700.00;;;7.46;54.52
27425;BME280;15244;49.088;11.886;2023-03-08T15:01:33;93681.78;;;7.46;55.81
27425;BME280;15244;49.088;11.886;2023-03-08T15:06:37;93684.25;;;7.60;55.87
27425;BME280;15244;49.088;11.886;2023-03-08T15:11:40;93665.44;;;7.73;55.57
27425;BME280;15244;49.088;11.886;2023-03-08T15:16:42;93663.56;;;7.70;57.07
27425;BME280;15244;49.088;11.886;2023-03-08T15:21:43;93652.09;;;7.82;57.02
27425;BME280;15244;49.088;11.886;2023-03-08T15:26:45;93645.91;;;8.02;56.80
27425;BME280;15244;49.088;11.886;2023-03-08T15:31:46;93641.19;;;8.06;57.44
27425;BME280;15244;49.088;11.886;2023-03-08T15:36:49;93644.75;;;8.23;57.63
27425;BME280;15244;49.088;11.886;2023-03-08T15:41:51;93650.78;;;8.51;56.98
27425;BME280;15244;49.088;11.886;2023-03-08T15:46:52;93648.53;;;8.65;56.73
27425;BME280;15244;49.088;11.886;2023-03-08T15:51:54;93642.78;;;8.80;56.67
27425;BME280;15244;49.088;11.886;2023-03-08T15:56:56;93643.28;;;8.91;56.51
27425;BME280;15244;49.088;11.886;2023-03-08T16:01:58;93639.25;;;8.99;56.67
27425;BME280;15244;49.088;11.886;2023-03-08T16:07:00;93647.16;;;9.10;56.52
27425;BME280;15244;49.088;11.886;2023-03-08T16:12:02;93654.09;;;9.11;56.81
27425;BME280;15244;49.088;11.886;2023-03-08T16:17:04;93670.25;;;9.18;57.09
27425;BME280;15244;49.088;11.886;2023-03-08T16:22:06;93663.44;;;9.26;56.99
27425;BME280;15244;49.088;11.886;2023-03-08T16:27:07;93664.81;;;9.35;56.86
27425;BME280;15244;49.088;11.886;2023-03-08T16:32:12;93646.03;;;9.40;57.15
27425;BME280;15244;49.088;11.886;2023-03-08T16:37:19;93638.13;;;9.46;56.98
27425;BME280;15244;49.088;11.886;2023-03-08T16:42:21;93628.34;;;9.48;57.05
27425;BME280;15244;49.088;11.886;2023-03-08T16:47:24;93630.19;;;9.51;57.12
27425;BME280;15244;49.088;11.886;2023-03-08T16:52:27;93628.59;;;9.54;57.18
27425;BME280;15244;49.088;11.886;2023-03-08T16:57:28;93617.88;;;9.47;57.56
27425;BME280;15244;49.088;11.886;2023-03-08T17:02:30;93613.53;;;9.49;57.47
27425;BME280;15244;49.088;11.886;2023-03-08T17:07:31;93625.97;;;9.50;57.34
27425;BME280;15244;49.088;11.886;2023-03-08T17:12:33;93620.69;;;9.43;58.26
27425;BME280;15244;49.088;11.886;2023-03-08T17:17:37;93619.78;;;9.50;58.07
27425;BME280;15244;49.088;11.886;2023-03-08T17:22:39;93602.00;;;9.45;58.22
27425;BME280;15244;49.088;11.886;2023-03-08T17:27:41;93614.31;;;9.50;58.05
27425;BME280;15244;49.088;11.886;2023-03-08T17:32:42;93617.69;;;9.54;58.24
27425;BME280;15244;49.088;11.886;2023-03-08T17:37:44;93628.59;;;9.54;58.01
27425;BME280;15244;49.088;11.886;2023-03-08T17:42:46;93638.28;;;9.55;58.12
27425;BME280;15244;49.088;11.886;2023-03-08T17:47:48;93636.31;;;9.55;58.49
27425;BME280;15244;49.088;11.886;2023-03-08T17:52:49;93630.13;;;9.55;58.52
27425;BME280;15244;49.088;11.886;2023-03-08T17:57:51;93628.50;;;9.58;58.66
27425;BME280;15244;49.088;11.886;2023-03-08T18:02:53;93634.94;;;9.64;58.93
27425;BME280;15244;49.088;11.886;2023-03-08T18:07:54;93627.81;;;9.70;58.59
27425;BME280;15244;49.088;11.886;2023-03-08T18:12:56;93630.09;;;9.71;58.42
27425;BME280;15244;49.088;11.886;2023-03-08T18:17:58;93614.34;;;9.79;58.59
27425;BME280;15244;49.088;11.886;2023-03-08T18:23:00;93619.59;;;9.86;58.32
27425;BME280;15244;49.088;11.886;2023-03-08T18:28:01;93622.31;;;9.86;59.15
27425;BME280;15244;49.088;11.886;2023-03-08T18:33:03;93623.41;;;9.89;58.79
27425;BME280;15244;49.088;11.886;2023-03-08T18:38:05;93629.19;;;9.91;58.83
27425;BME280;15244;49.088;11.886;2023-03-08T18:43:07;93639.75;;;9.89;58.89
27425;BME280;15244;49.088;11.886;2023-03-08T18:48:08;93632.84;;;9.84;58.87
27425;BME280;15244;49.088;11.886;2023-03-08T18:53:11;93631.00;;;9.81;59.36
27425;BME280;15244;49.088;11.886;2023-03-08T18:58:13;93637.97;;;9.82;59.87
27425;BME280;15244;49.088;11.886;2023-03-08T19:03:14;93630.91;;;9.85;60.28
27425;BME280;15244;49.088;11.886;2023-03-08T19:08:16;93609.47;;;9.87;60.46
27425;BME280;15244;49.088;11.886;2023-03-08T19:13:17;93630.63;;;9.95;60.48
27425;BME280;15244;49.088;11.886;2023-03-08T19:18:19;93616.38;;;10.04;59.79
27425;BME280;15244;49.088;11.886;2023-03-08T19:23:21;93613.13;;;10.09;60.10
27425;BME280;15244;49.088;11.886;2023-03-08T19:28:22;93612.59;;;10.14;60.33
27425;BME280;15244;49.088;11.886;2023-03-08T19:33:24;93608.69;;;10.15;60.12
27425;BME280;15244;49.088;11.886;2023-03-08T19:38:32;93614.91;;;10.16;60.19
27425;BME280;15244;49.088;11.886;2023-03-08T19:43:34;93607.38;;;10.20;59.92
27425;BME280;15244;49.088;11.886;2023-03-08T19:48:36;93613.50;;;10.24;59.71
27425;BME280;15244;49.088;11.886;2023-03-08T19:53:38;93602.16;;;10.13;60.48
27425;BME280;15244;49.088;11.886;2023-03-08T19:58:40;93615.97;;;10.06;60.99
27425;BME280;15244;49.088;11.886;2023-03-08T20:03:42;93627.50;;;10.10;60.47
27425;BME280;15244;49.088;11.886;2023-03-08T20:08:45;93601.47;;;10.09;61.25
27425;BME280;15244;49.088;11.886;2023-03-08T20:13:47;93614.25;;;10.25;60.24
27425;BME280;15244;49.088;11.886;2023-03-08T20:18:48;93599.38;;;10.29;60.28
27425;BME280;15244;49.088;11.886;2023-03-08T20:23:51;93604.47;;;10.27;60.28
27425;BME280;15244;49.088;11.886;2023-03-08T20:28:56;93600.63;;;10.25;60.54
27425;BME280;15244;49.088;11.886;2023-03-08T20:33:58;93599.22;;;10.20;60.65
27425;BME280;15244;49.088;11.886;2023-03-08T20:39:00;93596.41;;;10.24;60.53
27425;BME280;15244;49.088;11.886;2023-03-08T20:44:02;93603.38;;;10.25;60.24
27425;BME280;15244;49.088;11.886;2023-03-08T20:49:03;93595.44;;;10.30;60.28
27425;BME280;15244;49.088;11.886;2023-03-08T20:54:05;93610.69;;;10.28;60.39
27425;BME280;15244;49.088;11.886;2023-03-08T20:59:07;93587.59;;;10.32;60.24
27425;BME280;15244;49.088;11.886;2023-03-08T21:04:08;93575.28;;;10.28;60.12
27425;BME280;15244;49.088;11.886;2023-03-08T21:09:10;93594.34;;;10.28;60.13
27425;BME280;15244;49.088;11.886;2023-03-08T21:14:11;93562.19;;;10.23;60.40
27425;BME280;15244;49.088;11.886;2023-03-08T21:19:13;93582.16;;;10.32;60.17
27425;BME280;15244;49.088;11.886;2023-03-08T21:24:17;93573.44;;;10.37;60.13
27425;BME280;15244;49.088;11.886;2023-03-08T21:29:19;93547.09;;;10.34;60.00
27425;BME280;15244;49.088;11.886;2023-03-08T21:34:21;93544.69;;;10.36;59.69
27425;BME280;15244;49.088;11.886;2023-03-08T21:39:23;93543.78;;;10.27;60.50
27425;BME280;15244;49.088;11.886;2023-03-08T21:44:27;93553.16;;;10.26;60.16
27425;BME280;15244;49.088;11.886;2023-03-08T21:49:32;93555.34;;;10.18;60.50
27425;BME280;15244;49.088;11.886;2023-03-08T21:54:36;93572.41;;;10.06;60.76
27425;BME280;15244;49.088;11.886;2023-03-08T21:59:38;93565.88;;;10.16;60.84
27425;BME280;15244;49.088;11.886;2023-03-08T22:04:39;93567.84;;;10.15;60.82
27425;BME280;15244;49.088;11.886;2023-03-08T22:09:41;93556.19;;;10.15;61.08
27425;BME280;15244;49.088;11.886;2023-03-08T22:14:43;93577.75;;;10.22;60.91
27425;BME280;15244;49.088;11.886;2023-03-08T22:19:44;93577.75;;;10.22;61.07
27425;BME280;15244;49.088;11.886;2023-03-08T22:24:46;93558.81;;;10.18;61.11
27425;BME280;15244;49.088;11.886;2023-03-08T22:29:48;93562.94;;;10.10;62.08
27425;BME280;15244;49.088;11.886;2023-03-08T22:34:50;93572.09;;;10.16;61.51
27425;BME280;15244;49.088;11.886;2023-03-08T22:39:52;93580.78;;;10.11;61.84
27425;BME280;15244;49.088;11.886;2023-03-08T22:44:53;93569.03;;;10.14;62.14
27425;BME280;15244;49.088;11.886;2023-03-08T22:49:55;93572.84;;;10.17;62.35
27425;BME280;15244;49.088;11.886;2023-03-08T22:54:56;93573.53;;;10.21;62.13
27425;BME280;15244;49.088;11.886;2023-03-08T22:59:58;93569.06;;;10.27;62.12
27425;BME280;15244;49.088;11.886;2023-03-08T23:05:00;93567.78;;;10.32;61.69
27425;BME280;15244;49.088;11.886;2023-03-08T23:10:02;93594.06;;;10.38;62.04
27425;BME280;15244;49.088;11.886;2023-03-08T23:15:05;93609.09;;;10.43;62.07
27425;BME280;15244;49.088;11.886;2023-03-08T23:20:08;93611.72;;;10.47;61.97
27425;BME280;15244;49.088;11.886;2023-03-08T23:25:11;93629.16;;;10.49;61.44
27425;BME280;15244;49.088;11.886;2023-03-08T23:30:14;93614.88;;;10.58;61.10
27425;BME280;15244;49.088;11.886;2023-03-08T23:35:15;93602.69;;;10.62;60.86
27425;BME280;15244;49.088;11.886;2023-03-08T23:40:17;93597.91;;;10.67;60.42
27425;BME280;15244;49.088;11.886;2023-03-08T23:45:19;93595.38;;;10.72;60.44
27425;BME280;15244;49.088;11.886;2023-03-08T23:50:21;93596.06;;;10.76;60.41
27425;BME280;15244;49.088;11.886;2023-03-08T23:55:23;93596.34;;;10.78;59.93
